Clear Lake, South Dakota
Current Conditions -  °F | °C
As of 4:54 AM on Monday 20 Oct 2014 (Local Time) from KCNB Reporting Station
Clear Clear  
Wind Chill: 42°   Ceiling: Unl
Heat Index: 46°   Visibility: 10mi
Dew Point: 38°   Wind: 6mph
Humidity: 76%   Direction: 280°W
Pressure: 30.01"   Gusts: NA
Location:  44.75°N, 96.68°W
Report Text: KCNB 200954Z AUTO 28005KT 10SM CLR 08/04 A3001 RMK AO2 T00750035
Loading
Personal Weather Stations






























Interactive Weather Map
Tropical Storm Tracking
New forecast layout! Learn more

10-Day Weather Forecast

Advertisements
Track Severe Weather on mobile